KPOC/POC METAR and TAF weather

Enter ICAO airport designator
Station Type Date Time Source
KPOC METAR 2019/05/23 18:47 UTC NOAA

KPOC 231847Z 05003KT 10SM OVC020 13/09 A2999


Station Type Date Time Source
KPOC Decoded METAR 2019/05/23 18:47 UTC NOAA

La Verne / Brackett, CA, United States (KPOC) 34-06N 117-47W
May 23, 2019 - 02:47 PM EDT / 2019.05.23 1847 UTC
Wind: from the NE (050 degrees) at 3 MPH (3 KT):0
Visibility: 10 mile(s):0
Sky conditions: overcast
Temperature: 55 F (13 C)
Dew Point: 48 F (9 C)
Relative Humidity: 76%
Pressure (altimeter): 29.99 in. Hg (1015 hPa)
ob: KPOC 231847Z 05003KT 10SM OVC020 13/09 A2999
cycle: 19

Station Type Date Time Source
KPOC TAF UTC NOAA

Error!

Example: see airport list